Bruceton, Tennessee
Current Conditions -  °F | °C
As of 2:35 AM on Monday 24 Nov 2014 (Local Time) from KPHT Reporting Station
Overcast Overcast  
Wind Chill: 59°   Ceiling: 3300
Heat Index: 59°   Visibility: 10mi
Dew Point: 54°   Wind: 17mph
Humidity: 82%   Direction: 210°SSW
Pressure: 29.4"   Gusts: NA
Location:  36.04°N, 88.24°W
Report Text: KPHT 240835Z AUTO 21015KT 10SM SCT025 BKN033 OVC041 15/12 A2940 RMK
Loading
Personal Weather Stations






























Interactive Weather Map New forecast layout! Learn more

10-Day Weather Forecast

Advertisements
Track Severe Weather on mobile